Time;durP1;ratioP1;P1;durP2;ratioP2;P2;SDS_P1;SDS_P2;PMS_P1;PMS_P2;Temp;Humidity;BMP_temperature;BMP_pressure;BME280_temperature;BME280_humidity;BME280_pressure;Samples;Min_cycle;Max_cycle;Signal;HPM_P1;HPM_P2
2022/01/21 00:02:19;;;;;;;11.93;3.97;;;;;;;-0.21;87.45;103313.53;5018590;28;20388;-71
2022/01/21 00:04:44;;;;;;;14.52;4.28;;;;;;;-0.20;87.15;103330.78;5022137;28;20036;-71
2022/01/21 00:07:10;;;;;;;19.58;4.30;;;;;;;-0.20;86.92;103327.31;5020063;28;20163;-72
2022/01/21 00:09:35;;;;;;;12.68;4.07;;;;;;;-0.18;87.41;103334.34;5019390;28;20406;-71
2022/01/21 00:12:00;;;;;;;8.18;3.35;;;;;;;-0.15;87.18;103336.25;5022042;28;20098;-72
2022/01/21 00:14:27;;;;;;;13.48;4.35;;;;;;;-0.14;87.35;103335.47;5003045;28;20101;-71
2022/01/21 00:16:52;;;;;;;13.63;3.08;;;;;;;-0.12;87.56;103325.28;5019717;28;20037;-72
2022/01/21 00:19:23;;;;;;;9.00;4.05;;;;;;;-0.12;87.36;103320.13;5006259;28;20043;-71
2022/01/21 00:30:13;;;;;;;8.70;3.58;;;;;;;-0.16;87.15;103329.31;5025798;28;20111;-72
2022/01/21 00:32:40;;;;;;;34.88;4.53;;;;;;;-0.21;87.07;103317.78;5005994;28;20029;-73
2022/01/21 00:35:07;;;;;;;8.68;3.45;;;;;;;-0.24;87.19;103307.25;5051742;28;20028;-72
2022/01/21 00:37:32;;;;;;;7.57;2.92;;;;;;;-0.25;86.82;103318.34;5035558;28;20696;-72
2022/01/21 00:40:02;;;;;;;13.98;3.78;;;;;;;-0.32;86.79;103319.56;5035121;28;20033;-71
2022/01/21 00:44:59;;;;;;;;;;;;;;;-0.31;86.70;103326.53;5055368;28;20099;-71
2022/01/21 00:47:26;;;;;;;14.35;3.70;;;;;;;-0.42;86.80;103332.56;5036479;28;19920;-71
2022/01/21 00:49:51;;;;;;;10.77;4.95;;;;;;;-0.48;86.77;103337.28;5037565;28;20029;-72
2022/01/21 00:52:17;;;;;;;14.38;4.50;;;;;;;-0.54;86.74;103327.41;5021350;28;20397;-71
2022/01/21 00:54:42;;;;;;;20.60;4.35;;;;;;;-0.58;86.95;103330.56;5020029;28;20474;-72
2022/01/21 00:57:08;;;;;;;15.70;4.82;;;;;;;-0.65;86.78;103324.03;5018987;28;20500;-71
2022/01/21 00:59:34;;;;;;;10.07;4.05;;;;;;;-0.68;86.98;103330.66;5006995;28;20028;-71
2022/01/21 01:01:59;;;;;;;13.68;4.68;;;;;;;-0.74;87.30;103334.56;5005012;28;20041;-71
2022/01/21 01:04:25;;;;;;;24.45;5.18;;;;;;;-0.77;87.44;103336.91;5019481;28;20533;-71
2022/01/21 01:06:51;;;;;;;17.52;4.90;;;;;;;-0.80;87.55;103333.22;5019661;28;20393;-72
2022/01/21 01:09:16;;;;;;;10.60;3.15;;;;;;;-0.84;87.64;103336.34;5021088;28;20079;-71
2022/01/21 01:11:51;;;;;;;13.68;3.38;;;;;;;-0.88;87.27;103337.78;5007362;28;20053;-72
2022/01/21 01:20:04;;;;;;;7.32;3.17;;;;;;;-1.09;87.27;103345.66;5050188;28;20445;-74
2022/01/21 01:28:03;;;;;;;19.10;3.85;;;;;;;-1.24;87.93;103318.75;5051208;28;20067;-74
2022/01/21 01:30:31;;;;;;;7.85;3.65;;;;;;;-1.25;88.19;103317.88;5018410;28;20123;-74
2022/01/21 01:32:59;;;;;;;13.88;4.22;;;;;;;-1.24;88.89;103313.63;5033425;28;20048;-74
2022/01/21 01:35:26;;;;;;;13.10;3.97;;;;;;;-1.22;89.06;103310.38;5018856;28;20040;-74
2022/01/21 01:51:14;;;;;;;21.20;4.07;;;;;;;-1.06;89.07;103320.16;5040652;28;20753;-74
2022/01/21 01:54:07;;;;;;;16.92;3.78;;;;;;;-1.05;89.08;103314.25;5032626;28;20037;-74
2022/01/21 01:56:38;;;;;;;13.20;3.22;;;;;;;-1.05;89.71;103321.06;5031733;28;20106;-74
2022/01/21 01:59:04;;;;;;;16.55;3.90;;;;;;;-1.06;89.13;103307.28;5048138;28;20051;-74
2022/01/21 02:01:30;;;;;;;24.38;4.88;;;;;;;-1.05;88.89;103313.31;5032998;28;20068;-74
2022/01/21 02:03:55;;;;;;;13.43;3.25;;;;;;;-1.07;88.89;103313.22;5017396;28;20025;-74
2022/01/21 02:06:22;;;;;;;10.02;2.47;;;;;;;-1.09;89.22;103319.94;5018975;28;20111;-73
2022/01/21 02:08:48;;;;;;;8.77;2.03;;;;;;;-1.10;89.23;103323.28;5016367;28;20032;-74
2022/01/21 02:11:13;;;;;;;17.48;3.05;;;;;;;-1.13;88.90;103323.06;5017532;28;20029;-74
2022/01/21 02:13:44;;;;;;;27.83;3.55;;;;;;;-1.14;89.37;103328.97;5032746;28;20470;-74
2022/01/21 02:21:41;;;;;;;13.90;3.30;;;;;;;-1.22;89.43;103319.78;5050657;28;20180;-73
2022/01/21 02:24:19;;;;;;;14.27;3.25;;;;;;;-1.27;89.13;103311.69;5034397;28;20420;-74
2022/01/21 02:26:46;;;;;;;9.48;3.50;;;;;;;-1.29;89.44;103310.69;5052861;28;20120;-74
2022/01/21 02:29:17;;;;;;;9.63;2.88;;;;;;;-1.29;89.21;103314.97;5016839;28;20037;-74
2022/01/21 02:31:42;;;;;;;6.30;2.40;;;;;;;-1.30;89.53;103318.31;5029352;28;20025;-73
2022/01/21 02:34:09;;;;;;;10.38;2.78;;;;;;;-1.29;89.50;103320.09;5018905;28;20078;-74
2022/01/21 02:36:35;;;;;;;6.53;2.45;;;;;;;-1.31;89.69;103319.97;5035249;28;20431;-73
2022/01/21 02:39:04;;;;;;;5.47;2.72;;;;;;;-1.32;89.49;103323.34;5031077;28;20029;-74
2022/01/21 02:41:30;;;;;;;7.75;2.90;;;;;;;-1.36;89.31;103317.84;5032333;28;20033;-73
2022/01/21 02:43:58;;;;;;;12.23;3.25;;;;;;;-1.39;89.12;103315.94;5049450;28;20025;-73
2022/01/21 02:46:26;;;;;;;12.75;2.90;;;;;;;-1.40;89.62;103321.84;5014662;28;20533;-74
2022/01/21 02:48:52;;;;;;;6.13;2.00;;;;;;;-1.44;89.86;103312.09;5035601;28;20033;-74
2022/01/21 02:51:18;;;;;;;12.38;2.88;;;;;;;-1.45;89.47;103311.19;5050201;28;20370;-74
2022/01/21 02:56:17;;;;;;;7.43;2.78;;;;;;;-1.48;89.64;103308.41;5036785;28;20112;-74
2022/01/21 02:58:44;;;;;;;12.57;3.13;;;;;;;-1.49;89.46;103322.03;5031117;28;20024;-74
2022/01/21 03:01:10;;;;;;;8.45;2.45;;;;;;;-1.50;89.91;103320.22;5031264;28;20028;-74
2022/01/21 03:03:36;;;;;;;5.28;1.92;;;;;;;-1.51;89.76;103318.41;5001033;28;20040;-74
2022/01/21 03:06:07;;;;;;;10.52;3.30;;;;;;;-1.52;89.42;103320.88;4998195;28;20318;-74
2022/01/21 03:08:32;;;;;;;10.35;1.92;;;;;;;-1.53;89.78;103327.72;5032135;28;20297;-74
2022/01/21 03:10:58;;;;;;;10.90;2.33;;;;;;;-1.52;89.95;103326.94;5001141;28;20594;-74
2022/01/21 03:13:23;;;;;;;8.07;3.63;;;;;;;-1.57;90.09;103318.88;5016025;28;20048;-73
2022/01/21 03:15:53;;;;;;;21.00;3.25;;;;;;;-1.56;89.94;103322.34;5015307;28;20071;-74
2022/01/21 03:18:19;;;;;;;7.90;2.38;;;;;;;-1.55;89.86;103331.84;5015605;28;20033;-73
2022/01/21 03:20:45;;;;;;;4.53;2.20;;;;;;;-1.58;89.95;103327.34;5011341;28;20028;-73
2022/01/21 03:23:16;;;;;;;9.68;3.60;;;;;;;-1.57;89.94;103330.81;5032595;28;20021;-73
2022/01/21 03:25:44;;;;;;;12.40;3.08;;;;;;;-1.59;89.88;103320.41;5025931;28;20041;-73
2022/01/21 03:28:10;;;;;;;5.70;1.98;;;;;;;-1.60;89.51;103323.75;5017284;28;20036;-74
2022/01/21 03:30:36;;;;;;;9.43;3.60;;;;;;;-1.61;89.93;103326.19;5048953;28;20025;-73
2022/01/21 03:33:02;;;;;;;16.27;2.65;;;;;;;-1.66;90.02;103330.09;5031872;28;20036;-74
2022/01/21 03:35:28;;;;;;;8.93;1.65;;;;;;;-1.69;89.99;103327.31;5024376;28;20123;-74
2022/01/21 03:37:53;;;;;;;9.98;2.35;;;;;;;-1.69;90.13;103324.72;5005291;28;20036;-74
2022/01/21 03:40:18;;;;;;;7.22;2.10;;;;;;;-1.69;89.68;103329.88;5019211;28;20033;-74
2022/01/21 03:42:46;;;;;;;10.82;2.78;;;;;;;-1.73;89.83;103327.84;5036014;28;20096;-74
2022/01/21 03:45:13;;;;;;;13.30;2.63;;;;;;;-1.73;89.54;103340.69;5035396;28;20018;-74
2022/01/21 03:47:39;;;;;;;5.50;3.00;;;;;;;-1.81;89.75;103338.41;5019999;28;20120;-73
2022/01/21 03:50:21;;;;;;;8.73;1.85;;;;;;;-1.83;89.97;103344.19;5018157;28;20147;-73
2022/01/21 03:52:48;;;;;;;11.00;3.30;;;;;;;-1.86;89.43;103337.13;5028529;28;20082;-73
2022/01/21 03:55:18;;;;;;;7.70;3.22;;;;;;;-1.85;90.04;103346.66;5016254;28;20067;-74
2022/01/21 03:57:45;;;;;;;;;;;;;;;-1.79;89.93;103341.09;5016565;28;20033;-73
2022/01/21 04:00:27;;;;;;;13.52;2.35;;;;;;;-1.83;90.53;103345.09;5013165;28;20292;-73
2022/01/21 04:02:54;;;;;;;19.77;4.18;;;;;;;-1.82;90.57;103344.31;5032950;28;20031;-73
2022/01/21 04:05:21;;;;;;;6.28;2.53;;;;;;;-1.86;90.62;103339.72;5052460;28;20028;-73
2022/01/21 04:07:49;;;;;;;6.32;1.80;;;;;;;-1.86;91.00;103344.84;5050648;28;20383;-73
2022/01/21 04:10:16;;;;;;;16.63;4.05;;;;;;;-1.90;90.62;103341.91;5020015;28;20397;-73
2022/01/21 04:12:41;;;;;;;13.00;3.67;;;;;;;-1.93;90.51;103332.28;5017730;28;20064;-73
2022/01/21 04:15:07;;;;;;;8.88;3.80;;;;;;;-1.94;90.54;103336.53;5013397;28;20356;-72
2022/01/21 04:17:33;;;;;;;12.07;3.42;;;;;;;-1.96;90.69;103326.91;5015981;28;20033;-73
2022/01/21 04:19:59;;;;;;;9.88;2.35;;;;;;;-1.96;90.72;103330.38;5034550;28;20087;-73
2022/01/21 04:22:28;;;;;;;7.95;2.38;;;;;;;-1.99;91.16;103321.53;5031108;28;20044;-73
2022/01/21 04:24:54;;;;;;;11.50;2.15;;;;;;;-2.00;90.98;103323.19;5020361;28;20378;-73
2022/01/21 04:27:24;;;;;;;5.90;2.03;;;;;;;-2.02;90.91;103322.19;5056955;28;20392;-72
2022/01/21 04:29:49;;;;;;;6.45;2.65;;;;;;;-1.99;91.18;103321.53;5004851;28;20440;-73
2022/01/21 04:32:15;;;;;;;9.80;1.85;;;;;;;-2.01;91.24;103323.97;5001506;28;20041;-73
2022/01/21 04:34:41;;;;;;;9.32;2.17;;;;;;;-1.96;91.43;103324.34;5011579;28;20045;-72
2022/01/21 04:37:12;;;;;;;11.63;1.73;;;;;;;-1.97;91.61;103325.09;5038666;28;20033;-73
2022/01/21 04:39:46;;;;;;;4.90;1.63;;;;;;;-1.93;91.90;103327.16;5018973;28;20485;-73
2022/01/21 04:47:34;;;;;;;7.63;2.33;;;;;;;-1.83;92.08;103332.22;5052616;28;20059;-73
2022/01/21 04:50:01;;;;;;;18.20;3.60;;;;;;;-1.80;92.15;103327.31;5033556;28;20087;-73
2022/01/21 04:52:27;;;;;;;5.28;2.65;;;;;;;-1.76;92.43;103329.38;5022344;28;20128;-73
2022/01/21 04:54:57;;;;;;;16.35;3.25;;;;;;;-1.71;92.80;103324.63;5019540;28;20171;-73
2022/01/21 04:57:25;;;;;;;13.35;3.28;;;;;;;-1.70;92.90;103325.50;5019545;28;20593;-73
2022/01/21 04:59:50;;;;;;;22.95;2.78;;;;;;;-1.68;92.96;103318.78;5010230;28;20053;-73
2022/01/21 05:02:17;;;;;;;9.07;1.80;;;;;;;-1.66;93.18;103309.53;5021558;28;20072;-73
2022/01/21 05:04:43;;;;;;;14.63;3.42;;;;;;;-1.65;93.04;103314.81;5039532;28;20036;-73
2022/01/21 05:07:11;;;;;;;5.68;1.63;;;;;;;-1.61;93.03;103308.19;5032546;28;20040;-73
2022/01/21 05:09:37;;;;;;;9.07;2.15;;;;;;;-1.59;93.28;103309.25;5030352;28;20047;-73
2022/01/21 05:12:08;;;;;;;9.15;3.13;;;;;;;-1.58;93.09;103313.59;5001473;28;20132;-72
2022/01/21 05:17:18;;;;;;;14.75;2.83;;;;;;;-1.51;93.30;103318.41;5023439;28;20404;-73
2022/01/21 05:19:44;;;;;;;4.20;1.90;;;;;;;-1.52;93.47;103311.50;4999896;28;20048;-73
2022/01/21 05:22:10;;;;;;;14.02;2.65;;;;;;;-1.48;93.04;103322.91;5024761;28;20041;-73
2022/01/21 05:24:36;;;;;;;14.93;3.38;;;;;;;-1.51;93.29;103318.41;5034374;28;20512;-73
2022/01/21 05:27:01;;;;;;;11.82;2.78;;;;;;;-1.45;93.37;103325.72;5007242;28;20041;-72
2022/01/21 05:29:34;;;;;;;14.48;2.88;;;;;;;-1.45;93.68;103324.06;5014897;28;20091;-73
2022/01/21 05:32:01;;;;;;;9.85;2.78;;;;;;;-1.44;93.44;103336.16;5029674;28;20025;-73
2022/01/21 05:34:27;;;;;;;3.10;1.67;;;;;;;-1.44;93.07;103336.16;5048424;28;20042;-73
2022/01/21 05:36:55;;;;;;;11.15;2.65;;;;;;;-1.43;93.30;103324.19;5016341;28;20067;-73
2022/01/21 05:39:22;;;;;;;15.02;3.30;;;;;;;-1.42;92.93;103324.28;5033398;28;20043;-73
2022/01/21 05:41:50;;;;;;;12.55;2.42;;;;;;;-1.43;93.01;103327.63;5011784;28;20037;-73
2022/01/21 05:46:23;;;;;;;9.63;2.72;;;;;;;-1.42;92.66;103326.88;5032040;28;20064;-73
2022/01/21 05:47:06;;;;;;;5.47;1.80;;;;;;;-1.40;92.73;103332.13;5046635;28;20047;-73
2022/01/21 05:49:35;;;;;;;5.90;2.17;;;;;;;-1.43;93.20;103327.63;5013845;28;20131;-74
2022/01/21 05:52:06;;;;;;;11.55;2.10;;;;;;;-1.43;93.17;103330.22;5030479;28;20025;-73
2022/01/21 05:54:32;;;;;;;8.40;2.28;;;;;;;-1.41;92.79;103332.91;5032037;28;20043;-73
2022/01/21 05:56:58;;;;;;;14.57;3.00;;;;;;;-1.44;93.22;103333.59;5030715;28;20029;-73
2022/01/21 05:59:26;;;;;;;6.18;2.35;;;;;;;-1.44;93.23;103333.59;5013463;28;20036;-73
2022/01/21 06:01:54;;;;;;;9.35;1.98;;;;;;;-1.41;93.04;103344.09;5035226;28;20116;-73
2022/01/21 06:04:19;;;;;;;13.02;3.17;;;;;;;-1.42;93.08;103355.16;5032193;28;20087;-73
2022/01/21 06:06:45;;;;;;;7.15;2.15;;;;;;;-1.42;92.96;103350.03;5025050;28;20437;-73
2022/01/21 06:09:10;;;;;;;6.38;2.15;;;;;;;-1.40;93.46;103347.56;5015118;28;20555;-73
2022/01/21 06:11:39;;;;;;;9.20;2.78;;;;;;;-1.40;93.08;103342.41;5031081;28;20408;-73
2022/01/21 06:14:04;;;;;;;8.32;3.38;;;;;;;-1.40;93.19;103345.00;4995239;28;20102;-72
2022/01/21 06:16:30;;;;;;;15.32;2.88;;;;;;;-1.42;93.22;103344.88;5030758;28;20382;-73
2022/01/21 06:18:58;;;;;;;8.27;2.72;;;;;;;-1.42;93.24;103355.16;5032057;28;20469;-72
2022/01/21 06:21:24;;;;;;;10.52;3.10;;;;;;;-1.41;93.22;103362.09;5028899;28;20029;-72
2022/01/21 06:23:49;;;;;;;10.18;2.80;;;;;;;-1.41;93.28;103354.38;5033621;28;20401;-73
2022/01/21 06:26:14;;;;;;;12.35;3.50;;;;;;;-1.40;93.54;103351.03;5001515;28;20053;-73
2022/01/21 06:28:41;;;;;;;7.07;1.95;;;;;;;-1.42;93.23;103355.16;5026596;28;20036;-72
2022/01/21 06:31:09;;;;;;;9.15;3.45;;;;;;;-1.42;93.20;103364.56;5033084;28;20199;-71
2022/01/21 06:33:35;;;;;;;13.88;3.17;;;;;;;-1.43;93.08;103368.78;5013966;28;20038;-72
2022/01/21 06:36:03;;;;;;;13.48;2.97;;;;;;;-1.43;92.94;103373.94;5008644;28;20401;-72
2022/01/21 06:38:35;;;;;;;9.63;3.75;;;;;;;-1.44;92.99;103377.31;5022300;28;20053;-72
2022/01/21 06:41:02;;;;;;;14.57;2.97;;;;;;;-1.42;93.49;103388.59;5009571;28;20037;-72
2022/01/21 06:43:38;;;;;;;5.43;2.63;;;;;;;-1.40;93.53;103388.72;5015960;28;20033;-72
2022/01/21 06:46:09;;;;;;;11.75;2.15;;;;;;;-1.35;93.63;103391.63;5032807;28;20033;-71
2022/01/21 06:48:34;;;;;;;9.40;1.95;;;;;;;-1.33;93.49;103390.09;5027486;28;20025;-73
2022/01/21 06:51:03;;;;;;;13.52;2.40;;;;;;;-1.30;93.74;103398.06;4996916;28;20386;-73
2022/01/21 06:53:28;;;;;;;16.98;3.28;;;;;;;-1.26;93.72;103387.22;5017163;28;20107;-73
2022/01/21 06:55:54;;;;;;;11.23;3.10;;;;;;;-1.21;94.18;103391.03;5003001;28;20481;-73
2022/01/21 06:58:19;;;;;;;8.85;2.90;;;;;;;-1.15;93.71;103395.75;4999031;28;20382;-73
2022/01/21 07:00:48;;;;;;;14.90;2.25;;;;;;;-1.12;94.08;103393.41;5030531;28;20039;-73
2022/01/21 07:03:14;;;;;;;9.23;2.15;;;;;;;-1.07;93.85;103395.56;5033597;28;20029;-73
2022/01/21 07:05:39;;;;;;;13.10;3.40;;;;;;;-1.01;94.16;103409.69;5016481;28;20040;-73
2022/01/21 07:08:05;;;;;;;9.18;2.28;;;;;;;-0.97;93.83;103407.47;5020089;28;20114;-73
2022/01/21 07:10:31;;;;;;;9.90;2.10;;;;;;;-0.89;93.83;103403.81;5013759;28;20470;-73
2022/01/21 07:12:59;;;;;;;11.57;2.85;;;;;;;-0.83;94.23;103405.97;5000592;28;20156;-74
2022/01/21 07:15:25;;;;;;;12.00;3.00;;;;;;;-0.77;94.04;103400.38;5011555;28;20051;-73
2022/01/21 07:17:53;;;;;;;5.93;3.00;;;;;;;-0.72;94.17;103409.34;5036243;28;20056;-72
2022/01/21 07:20:20;;;;;;;7.53;3.40;;;;;;;-0.66;93.78;103414.97;5033804;28;20037;-73
2022/01/21 07:22:46;;;;;;;10.70;3.88;;;;;;;-0.63;93.66;103420.34;5014547;28;20021;-74
2022/01/21 07:25:13;;;;;;;12.80;4.07;;;;;;;-0.59;93.81;103421.47;5036137;28;20045;-73
2022/01/21 07:27:42;;;;;;;10.75;4.07;;;;;;;-0.54;93.54;103420.16;5007900;28;20045;-73
2022/01/21 07:30:09;;;;;;;10.85;3.85;;;;;;;-0.49;93.65;103420.50;5034391;28;20029;-73
2022/01/21 07:32:34;;;;;;;9.32;3.63;;;;;;;-0.45;93.71;103430.25;5021012;28;20474;-73
2022/01/21 07:35:00;;;;;;;4.57;3.40;;;;;;;-0.42;93.35;103440.78;5018570;28;20029;-73
2022/01/21 07:37:25;;;;;;;20.27;4.18;;;;;;;-0.38;93.22;103435.06;5020765;28;21145;-73
2022/01/21 07:39:50;;;;;;;12.20;3.10;;;;;;;-0.36;93.48;103437.00;5010793;28;20484;-73
2022/01/21 07:42:16;;;;;;;13.88;3.80;;;;;;;-0.33;93.27;103438.91;5033250;28;20397;-74
2022/01/21 07:44:41;;;;;;;5.72;3.63;;;;;;;-0.28;93.35;103439.25;5024109;28;20066;-73
2022/01/21 07:47:09;;;;;;;14.48;4.00;;;;;;;-0.25;93.34;103424.88;5022547;28;20028;-74
2022/01/21 07:49:35;;;;;;;11.68;3.60;;;;;;;-0.21;93.09;103414.03;5018252;28;20056;-74
2022/01/21 07:52:00;;;;;;;12.93;3.78;;;;;;;-0.18;93.03;103424.56;5011223;28;20032;-74
2022/01/21 07:54:26;;;;;;;14.50;4.30;;;;;;;-0.12;93.04;103430.97;5014901;28;20064;-74
2022/01/21 07:56:51;;;;;;;6.90;4.00;;;;;;;-0.08;93.21;103428.72;5005805;28;20041;-74
2022/01/21 07:59:17;;;;;;;17.98;4.28;;;;;;;-0.02;93.03;103416.25;5042703;28;20039;-74
2022/01/21 08:01:43;;;;;;;13.82;4.50;;;;;;;0.06;93.18;103400.47;5061506;28;20028;-74
2022/01/21 08:04:08;;;;;;;6.93;4.47;;;;;;;0.12;92.67;103406.09;5019677;28;20036;-74
2022/01/21 08:06:35;;;;;;;8.00;3.90;;;;;;;0.16;92.72;103401.25;5035385;28;20086;-74
2022/01/21 08:09:24;;;;;;;11.25;5.70;;;;;;;0.20;92.22;103393.72;5050182;28;20052;-74
2022/01/21 08:11:50;;;;;;;9.55;4.68;;;;;;;0.21;91.79;103392.94;5051925;28;20063;-74
2022/01/21 08:14:16;;;;;;;7.55;4.82;;;;;;;0.26;91.82;103400.22;5021151;28;20087;-74
2022/01/21 08:16:41;;;;;;;8.95;5.03;;;;;;;0.32;91.76;103404.94;5038894;28;20024;-74
2022/01/21 08:19:07;;;;;;;9.05;4.18;;;;;;;0.38;91.85;103391.59;5038132;28;20028;-74
2022/01/21 08:21:32;;;;;;;12.57;5.68;;;;;;;0.48;91.48;103391.44;5011873;28;20047;-74
2022/01/21 08:23:58;;;;;;;10.27;5.07;;;;;;;0.58;91.66;103399.03;4999563;28;20026;-74
2022/01/21 08:26:28;;;;;;;9.98;4.85;;;;;;;0.65;91.26;103396.09;5010507;28;20144;-74
2022/01/21 08:28:56;;;;;;;8.77;4.32;;;;;;;0.72;90.77;103392.28;5053126;28;20048;-74
2022/01/21 08:31:25;;;;;;;11.60;4.93;;;;;;;0.80;90.61;103390.22;5021463;28;20099;-74
2022/01/21 08:33:51;;;;;;;9.15;5.40;;;;;;;0.99;90.96;103392.38;5030215;28;20064;-74
2022/01/21 08:36:22;;;;;;;20.45;6.10;;;;;;;1.65;90.45;103409.75;5052358;28;20381;-74
2022/01/21 08:38:52;;;;;;;9.27;4.53;;;;;;;2.56;87.94;103410.38;5037026;28;20548;-74
2022/01/21 08:41:18;;;;;;;17.42;6.63;;;;;;;2.73;85.09;103410.53;5025090;28;20490;-74
2022/01/21 08:43:43;;;;;;;17.38;6.05;;;;;;;2.72;85.78;103412.22;5027917;28;20059;-74
2022/01/21 08:46:09;;;;;;;12.18;5.15;;;;;;;2.88;86.41;103405.41;5013085;28;20113;-74
2022/01/21 08:48:36;;;;;;;9.10;5.88;;;;;;;3.63;86.17;103409.91;5037026;28;20021;-74
2022/01/21 08:51:08;;;;;;;11.30;5.47;;;;;;;4.52;84.66;103405.31;5035373;28;20037;-74
2022/01/21 08:53:36;;;;;;;10.18;5.75;;;;;;;4.99;82.19;103404.34;5037854;28;20103;-75
2022/01/21 08:56:07;;;;;;;13.13;6.05;;;;;;;5.06;78.45;103405.59;5037515;28;20029;-74
2022/01/21 08:58:35;;;;;;;10.52;5.05;;;;;;;4.93;77.87;103413.53;5029466;28;20024;-75
2022/01/21 09:01:01;;;;;;;10.13;4.72;;;;;;;4.63;77.49;103419.78;5016874;28;20141;-74
2022/01/21 09:03:26;;;;;;;13.93;5.35;;;;;;;4.63;79.10;103403.31;5044509;28;20111;-74
2022/01/21 09:05:52;;;;;;;14.95;5.65;;;;;;;4.60;77.21;103395.34;5020468;28;20044;-74
2022/01/21 09:08:24;;;;;;;11.57;4.88;;;;;;;4.62;77.38;103386.81;5039203;28;20481;-74
2022/01/21 09:10:53;;;;;;;7.40;4.82;;;;;;;4.81;79.24;103383.50;5058452;28;20048;-75
2022/01/21 09:13:21;;;;;;;14.88;5.63;;;;;;;4.99;79.76;103377.50;5038909;28;20116;-74
2022/01/21 09:15:47;;;;;;;18.73;5.25;;;;;;;4.91;77.42;103378.78;5012085;28;20111;-75
2022/01/21 09:18:18;;;;;;;10.75;5.15;;;;;;;4.86;77.98;103387.22;5054015;28;20111;-75
2022/01/21 09:20:43;;;;;;;;;;;;;;;5.06;81.71;103392.59;5012716;28;20036;-74
2022/01/21 09:23:09;;;;;;;6.93;3.38;;;;;;;5.11;80.05;103391.09;5024915;28;19966;-75
2022/01/21 09:25:53;;;;;;;9.45;4.50;;;;;;;5.37;80.72;103387.25;5034045;28;20057;-74
2022/01/21 09:28:19;;;;;;;14.55;5.10;;;;;;;5.57;80.39;103389.06;5044539;28;20033;-74
2022/01/21 09:30:44;;;;;;;15.25;4.43;;;;;;;5.71;78.48;103395.84;5007578;28;20517;-74
2022/01/21 09:33:10;;;;;;;15.73;4.68;;;;;;;5.92;79.59;103388.19;5028790;28;20099;-74
2022/01/21 09:35:38;;;;;;;13.35;5.18;;;;;;;6.11;79.00;103397.81;5024281;28;20493;-74
2022/01/21 09:38:06;;;;;;;7.50;3.58;;;;;;;6.75;75.63;103401.63;5018560;28;20568;-75
2022/01/21 09:40:39;;;;;;;10.05;4.32;;;;;;;8.56;75.96;103401.25;5018037;28;20104;-74
2022/01/21 09:43:07;;;;;;;8.77;4.40;;;;;;;10.42;70.78;103401.44;5020576;28;20196;-75
2022/01/21 09:45:32;;;;;;;8.45;4.20;;;;;;;12.00;63.87;103393.38;5029008;28;20033;-75
2022/01/21 09:47:59;;;;;;;6.75;3.92;;;;;;;13.72;61.30;103389.75;5038071;28;20039;-75
2022/01/21 09:50:25;;;;;;;10.60;4.15;;;;;;;14.92;56.49;103402.78;5010809;28;20033;-75
2022/01/21 09:52:53;;;;;;;8.57;3.92;;;;;;;15.99;54.23;103397.59;5044415;28;20029;-75
2022/01/21 09:55:22;;;;;;;13.52;3.80;;;;;;;17.15;48.67;103403.34;5031564;28;20041;-75
2022/01/21 09:57:54;;;;;;;10.13;2.80;;;;;;;18.39;47.26;103413.84;5021162;28;20040;-76
2022/01/21 10:00:22;;;;;;;11.23;3.85;;;;;;;19.28;46.52;103418.75;5053970;28;20033;-76
2022/01/21 10:02:48;;;;;;;7.13;3.20;;;;;;;20.28;42.33;103421.38;5035213;28;20075;-76
2022/01/21 10:05:15;;;;;;;11.25;3.20;;;;;;;21.26;40.05;103427.16;5037926;28;20033;-76
2022/01/21 10:07:46;;;;;;;5.50;2.95;;;;;;;21.92;42.36;103433.19;5022286;28;20021;-75
2022/01/21 10:10:13;;;;;;;5.05;2.33;;;;;;;22.18;34.34;103438.03;5041535;28;20473;-75
2022/01/21 10:12:39;;;;;;;6.63;3.38;;;;;;;22.60;35.91;103442.59;5014612;28;20123;-76
2022/01/21 10:15:08;;;;;;;10.35;5.55;;;;;;;23.00;34.40;103447.91;5014458;28;20113;-75
2022/01/21 10:17:35;;;;;;;5.13;3.28;;;;;;;23.11;34.88;103455.69;5010141;28;20032;-75
2022/01/21 10:20:14;;;;;;;5.18;2.70;;;;;;;23.36;40.54;103452.47;5022103;28;20489;-75
2022/01/21 10:22:56;;;;;;;4.65;1.70;;;;;;;22.27;40.10;103451.22;5043699;28;20025;-75
2022/01/21 10:25:22;;;;;;;4.28;1.80;;;;;;;21.31;35.68;103451.97;5034455;28;20053;-76
2022/01/21 10:27:47;;;;;;;9.63;2.38;;;;;;;21.87;35.65;103448.44;5040437;28;20032;-76
2022/01/21 10:30:24;;;;;;;4.28;2.20;;;;;;;21.54;39.33;103451.66;5017383;28;20033;-75
2022/01/21 10:32:50;;;;;;;6.78;2.67;;;;;;;21.65;34.48;103445.25;5046745;28;20037;-75
2022/01/21 10:35:35;;;;;;;15.80;2.72;;;;;;;22.74;35.92;103439.59;5059253;28;20037;-76
2022/01/21 10:38:14;;;;;;;7.78;2.25;;;;;;;23.98;38.52;103445.56;5044048;28;20078;-75
2022/01/21 10:40:40;;;;;;;6.78;1.73;;;;;;;24.77;30.35;103452.22;5056865;28;20448;-76
2022/01/21 10:43:17;;;;;;;10.70;2.28;;;;;;;25.35;34.33;103456.69;5034075;28;20025;-76
2022/01/21 10:45:57;;;;;;;7.47;2.22;;;;;;;25.02;35.21;103459.50;5035897;28;20039;-75
2022/01/21 10:48:25;;;;;;;6.93;1.73;;;;;;;24.18;29.47;103453.91;5017671;28;20052;-76
2022/01/21 10:51:20;;;;;;;10.68;2.22;;;;;;;22.79;37.19;103454.63;5023135;28;20044;-75
2022/01/21 10:53:46;;;;;;;6.30;2.65;;;;;;;21.47;33.63;103441.94;5036209;28;20047;-74
2022/01/21 10:56:18;;;;;;;8.65;1.98;;;;;;;21.31;35.08;103438.66;5035115;28;20029;-73
2022/01/21 10:58:52;;;;;;;7.50;2.60;;;;;;;20.49;35.02;103431.78;5033553;28;20025;-73
2022/01/21 11:01:24;;;;;;;6.88;2.00;;;;;;;18.57;35.87;103440.34;5051668;28;20098;-74
2022/01/21 11:04:14;;;;;;;13.45;2.20;;;;;;;16.92;40.13;103441.28;5035344;28;20021;-73
2022/01/21 11:06:55;;;;;;;8.18;2.47;;;;;;;15.15;42.79;103434.72;5017722;28;20154;-73
2022/01/21 11:09:23;;;;;;;6.80;2.33;;;;;;;13.05;45.81;103421.03;5050300;28;20102;-75
2022/01/21 11:12:26;;;;;;;11.05;2.70;;;;;;;11.87;50.12;103412.31;5037926;28;20037;-73
2022/01/21 11:14:56;;;;;;;11.10;2.67;;;;;;;10.74;52.99;103402.38;4956542;28;20035;-72
2022/01/21 11:17:22;;;;;;;9.25;2.40;;;;;;;10.08;54.72;103399.50;5018477;28;20048;-72
2022/01/21 11:20:23;;;;;;;9.75;2.72;;;;;;;9.74;55.82;103396.69;5043436;28;20033;-72
2022/01/21 11:22:57;;;;;;;10.00;2.60;;;;;;;9.02;59.47;103402.94;5020290;28;20053;-73
2022/01/21 11:25:51;;;;;;;8.27;2.25;;;;;;;8.79;59.64;103395.19;5039125;28;20049;-72
2022/01/21 11:28:37;;;;;;;11.30;2.75;;;;;;;8.57;62.13;103392.59;5039189;28;20029;-72
2022/01/21 11:31:04;;;;;;;11.38;2.47;;;;;;;8.48;64.15;103393.13;5029511;28;20040;-73
2022/01/21 11:33:30;;;;;;;10.02;3.15;;;;;;;8.54;64.63;103395.97;5004001;28;20049;-72
2022/01/21 11:35:56;;;;;;;13.30;3.60;;;;;;;8.36;65.20;103392.63;5034981;28;20041;-72
2022/01/21 11:38:25;;;;;;;9.57;2.75;;;;;;;8.03;64.31;103395.69;5049231;28;20043;-72
2022/01/21 11:40:52;;;;;;;14.88;3.22;;;;;;;7.75;65.90;103400.69;5036224;28;20087;-73
2022/01/21 11:43:18;;;;;;;10.60;3.33;;;;;;;7.55;69.98;103402.47;5043351;28;20029;-72
2022/01/21 11:48:54;;;;;;;9.65;2.90;;;;;;;7.25;68.83;103389.03;5052969;28;20127;-72
2022/01/21 11:51:21;;;;;;;10.25;2.75;;;;;;;7.13;69.74;103396.34;5038869;28;20477;-73
2022/01/21 11:53:52;;;;;;;6.95;2.42;;;;;;;7.13;70.09;103385.91;5032173;28;20044;-72
2022/01/21 11:56:30;;;;;;;9.55;2.22;;;;;;;7.14;69.42;103385.97;5049915;28;20404;-72
2022/01/21 11:59:04;;;;;;;11.40;3.75;;;;;;;7.11;70.99;103389.34;5037047;28;20025;-71
2022/01/21 12:01:41;;;;;;;14.48;3.53;;;;;;;7.09;70.51;103387.47;5042197;28;20028;-71
2022/01/21 12:04:07;;;;;;;11.57;3.58;;;;;;;7.11;70.46;103385.81;5037399;28;20059;-73
2022/01/21 12:06:35;;;;;;;44.15;22.83;;;;;;;7.17;72.25;103375.69;5036056;28;20126;-72
2022/01/21 12:09:08;;;;;;;13.65;4.68;;;;;;;7.17;70.47;103365.25;5021442;28;20029;-73
2022/01/21 12:11:37;;;;;;;19.58;9.75;;;;;;;7.19;71.78;103365.31;5056185;28;20033;-71
2022/01/21 12:14:27;;;;;;;17.13;4.13;;;;;;;7.03;70.81;103364.63;5065002;28;20034;-73
2022/01/21 12:16:58;;;;;;;12.57;3.60;;;;;;;6.92;69.89;103358.06;5040114;28;20509;-72
2022/01/21 12:19:34;;;;;;;16.33;3.90;;;;;;;6.74;71.33;103358.16;5013562;28;20500;-72
2022/01/21 12:22:15;;;;;;;17.88;3.78;;;;;;;6.59;71.42;103354.03;5024544;28;20036;-71
2022/01/21 12:24:51;;;;;;;16.02;3.25;;;;;;;6.55;72.50;103351.19;5041069;28;20620;-72
2022/01/21 12:27:21;;;;;;;14.05;3.40;;;;;;;6.58;72.64;103351.38;5059226;28;20056;-73